Time;durP1;ratioP1;P1;durP2;ratioP2;P2;SDS_P1;SDS_P2;PMS_P1;PMS_P2;Temp;Humidity;BMP_temperature;BMP_pressure;BME280_temperature;BME280_humidity;BME280_pressure;Samples;Min_cycle;Max_cycle;Signal;HPM_P1;HPM_P2
2022/01/30 00:01:18;;;;;;;13.37;7.23;;;;;;;-1.05;71.64;98842.43;1673254;84;20951;-77
2022/01/30 00:03:45;;;;;;;14.03;8.20;;;;;;;-1.01;71.67;98839.73;1684611;84;21062;-76
2022/01/30 00:06:11;;;;;;;13.93;7.23;;;;;;;-0.98;71.65;98852.52;1691343;84;21062;-74
2022/01/30 00:08:39;;;;;;;15.40;8.07;;;;;;;-1.04;71.79;98834.83;1693709;84;21019;-72
2022/01/30 00:11:13;;;;;;;11.23;6.97;;;;;;;-1.04;71.87;98827.73;1656763;85;21124;-73
2022/01/30 00:13:35;;;;;;;12.97;7.60;;;;;;;-0.99;72.00;98810.80;1704248;84;21090;-75
2022/01/30 00:16:05;;;;;;;7.13;5.80;;;;;;;-0.97;71.92;98797.42;1682851;84;21066;-73
2022/01/30 00:18:44;;;;;;;10.43;7.43;;;;;;;-0.98;71.95;98809.80;1687321;83;21030;-74
2022/01/30 00:21:11;;;;;;;9.33;6.67;;;;;;;-0.98;72.02;98791.33;1703152;84;21071;-73
2022/01/30 00:23:36;;;;;;;8.50;5.00;;;;;;;-0.98;72.04;98779.95;1704512;83;21190;-72
2022/01/30 00:26:04;;;;;;;9.53;5.60;;;;;;;-0.99;72.02;98778.33;1686086;83;21017;-75
2022/01/30 00:28:32;;;;;;;10.00;5.40;;;;;;;-0.96;72.11;98771.34;1719305;83;21041;-74
2022/01/30 00:30:58;;;;;;;8.03;4.60;;;;;;;-0.96;72.05;98771.34;1719552;83;21550;-74
2022/01/30 00:33:25;;;;;;;8.70;5.17;;;;;;;-0.98;72.09;98755.70;1711623;83;21572;-75
2022/01/30 00:35:52;;;;;;;11.67;6.27;;;;;;;-0.99;72.21;98730.83;1719912;83;20977;-73
2022/01/30 00:38:22;;;;;;;12.53;7.00;;;;;;;-1.04;72.36;98735.89;1718699;83;21076;-72
2022/01/30 00:40:49;;;;;;;10.50;6.47;;;;;;;-1.06;72.57;98744.02;1708538;84;21117;-75
2022/01/30 00:43:16;;;;;;;10.67;6.90;;;;;;;-1.07;72.70;98719.14;1669755;85;21033;-71
2022/01/30 00:45:42;;;;;;;10.60;6.57;;;;;;;-1.03;72.76;98705.35;1687633;83;21125;-72
2022/01/30 00:48:08;;;;;;;8.63;5.83;;;;;;;-0.99;72.72;98703.94;1680239;85;21098;-73
2022/01/30 00:50:35;;;;;;;12.20;5.90;;;;;;;-1.00;72.72;98694.39;1710029;83;21087;-73
2022/01/30 00:53:03;;;;;;;9.37;6.13;;;;;;;-0.96;72.71;98678.46;1680179;85;21004;-73
2022/01/30 00:55:30;;;;;;;10.80;6.77;;;;;;;-0.95;72.69;98663.44;1710064;83;21091;-75
2022/01/30 00:57:57;;;;;;;8.60;6.03;;;;;;;-0.95;72.60;98670.04;1708231;84;21108;-75
2022/01/30 01:00:24;;;;;;;9.50;5.90;;;;;;;-0.96;72.67;98676.36;1686528;84;21004;-75
2022/01/30 01:02:51;;;;;;;13.90;6.63;;;;;;;-0.94;72.63;98656.66;1676673;85;21097;-75
2022/01/30 01:05:18;;;;;;;10.27;6.33;;;;;;;-0.92;72.51;98647.23;1687988;83;21080;-74
2022/01/30 01:07:47;;;;;;;18.77;7.37;;;;;;;-0.92;72.58;98641.95;1680226;85;21047;-75
2022/01/30 01:13:14;;;;;;;9.77;5.87;;;;;;;-0.94;72.69;98618.89;1710400;83;21505;-73
2022/01/30 01:23:24;;;;;;;10.00;6.80;;;;;;;-0.84;72.55;98598.70;1637290;87;21038;-75
2022/01/30 01:23:38;;;;;;;8.53;6.27;;;;;;;-0.83;72.45;98581.86;1700180;84;21075;-72
2022/01/30 01:26:00;;;;;;;10.40;5.20;;;;;;;-0.84;72.45;98599.52;1706107;84;21085;-74
2022/01/30 01:28:27;;;;;;;7.00;4.93;;;;;;;-0.82;72.37;98568.47;1706959;84;20997;-73
2022/01/30 01:30:53;;;;;;;14.90;6.80;;;;;;;-0.85;72.30;98570.17;1682068;84;21021;-73
2022/01/30 01:33:22;;;;;;;17.90;5.93;;;;;;;-0.88;72.20;98553.44;1663585;85;21034;-73
2022/01/30 01:35:48;;;;;;;7.60;4.57;;;;;;;-0.85;72.29;98545.61;1664087;85;20975;-74
2022/01/30 01:38:15;;;;;;;12.07;8.10;;;;;;;-0.85;72.01;98537.69;1664403;86;21358;-74
2022/01/30 01:40:51;;;;;;;6.80;5.20;;;;;;;-0.85;72.14;98531.91;1695637;83;20925;-76
2022/01/30 01:43:15;;;;;;;9.73;6.20;;;;;;;-0.85;71.87;98517.89;1719814;83;21064;-73
2022/01/30 01:45:41;;;;;;;16.17;6.80;;;;;;;-0.84;71.85;98514.25;1725267;83;21053;-76
2022/01/30 01:48:11;;;;;;;6.10;4.60;;;;;;;-0.84;71.95;98513.73;1725100;83;21025;-77
2022/01/30 01:50:39;;;;;;;11.47;6.77;;;;;;;-0.81;71.95;98513.83;1725160;83;21039;-76
2022/01/30 01:53:09;;;;;;;10.93;6.13;;;;;;;-0.77;71.83;98501.36;1700091;83;21436;-75
2022/01/30 01:55:36;;;;;;;8.60;6.00;;;;;;;-0.81;71.88;98500.13;1714954;82;21091;-77
2022/01/30 01:58:04;;;;;;;9.60;6.10;;;;;;;-0.78;71.85;98498.91;1679555;84;20988;-80
2022/01/30 02:00:39;;;;;;;6.80;5.57;;;;;;;-0.75;71.85;98500.63;1686120;83;21577;-75
2022/01/30 02:03:05;;;;;;;9.87;6.83;;;;;;;-0.73;71.74;98488.55;1709550;83;21046;-78
2022/01/30 02:05:34;;;;;;;7.90;5.30;;;;;;;-0.70;71.81;98505.28;1705397;84;21024;-80
2022/01/30 02:08:25;;;;;;;11.73;7.10;;;;;;;-0.68;71.74;98479.00;1695005;84;21067;-75
2022/01/30 02:10:46;;;;;;;9.47;5.93;;;;;;;-0.67;72.25;98491.16;1691499;83;21624;-82
2022/01/30 02:13:34;;;;;;;9.73;6.15;;;;;;;-0.69;71.93;98468.13;1704956;82;21573;-77
2022/01/30 02:24:01;;;;;;;8.10;6.73;;;;;;;-0.82;73.03;98442.29;1712943;83;21541;-75
2022/01/30 02:26:25;;;;;;;12.63;7.03;;;;;;;-0.81;73.80;98451.80;1700379;83;26930;-74
2022/01/30 02:28:54;;;;;;;7.43;6.07;;;;;;;-0.84;75.07;98425.33;1700139;83;21085;-76
2022/01/30 02:31:22;;;;;;;10.57;5.43;;;;;;;-0.91;75.84;98443.00;1700164;83;20988;-74
2022/01/30 02:33:52;;;;;;;7.73;5.53;;;;;;;-0.97;76.64;98409.05;1700166;83;21001;-73
2022/01/30 02:36:18;;;;;;;6.80;5.20;;;;;;;-1.01;76.97;98396.47;1725426;83;21641;-76
2022/01/30 02:38:45;;;;;;;10.83;5.90;;;;;;;-1.01;77.60;98395.94;1709657;82;21556;-75
2022/01/30 02:41:11;;;;;;;5.87;5.00;;;;;;;-1.08;78.81;98379.84;1709310;83;22050;-73
2022/01/30 02:43:53;;;;;;;9.50;6.37;;;;;;;-1.12;79.20;98360.98;1711458;83;21456;-77
2022/01/30 02:46:21;;;;;;;11.27;6.30;;;;;;;-1.14;79.99;98352.97;1693525;83;21048;-75
2022/01/30 02:48:50;;;;;;;7.43;5.00;;;;;;;-1.15;80.49;98343.45;1703001;84;21013;-75
2022/01/30 02:51:13;;;;;;;10.00;6.07;;;;;;;-1.16;81.07;98341.83;1703767;84;21052;-78
2022/01/30 02:53:43;;;;;;;11.00;4.47;;;;;;;-1.19;81.57;98316.66;1679477;84;21180;-76
2022/01/30 02:56:07;;;;;;;8.23;5.33;;;;;;;-1.24;83.30;98300.65;1705020;84;21497;-77
2022/01/30 02:58:34;;;;;;;6.60;4.63;;;;;;;-1.30;83.79;98296.23;1679110;84;21703;-77
2022/01/30 03:01:00;;;;;;;10.60;4.90;;;;;;;-1.32;84.40;98292.47;1683464;83;21143;-76
2022/01/30 03:03:27;;;;;;;4.27;3.20;;;;;;;-1.35;85.20;98291.58;1720555;82;21166;-76
2022/01/30 03:05:53;;;;;;;9.20;5.70;;;;;;;-1.45;86.41;98275.39;1725097;82;21133;-77
2022/01/30 03:08:20;;;;;;;5.37;4.63;;;;;;;-1.50;87.00;98278.34;1723913;83;21028;-78
2022/01/30 03:10:47;;;;;;;10.93;4.17;;;;;;;-1.54;87.52;98261.33;1725216;82;20930;-77
2022/01/30 03:13:14;;;;;;;7.97;4.57;;;;;;;-1.54;87.81;98265.28;1695437;84;21428;-77
2022/01/30 03:15:40;;;;;;;7.97;4.23;;;;;;;-1.56;88.63;98260.20;1678739;84;21560;-79
2022/01/30 03:18:07;;;;;;;7.03;4.17;;;;;;;-1.61;89.57;98247.34;1678803;84;21103;-78
2022/01/30 03:20:34;;;;;;;4.63;4.00;;;;;;;-1.70;90.59;98236.23;1707347;83;21021;-78
2022/01/30 03:23:02;;;;;;;7.83;4.13;;;;;;;-1.70;91.09;98234.91;1712338;83;20940;-77
2022/01/30 03:25:33;;;;;;;7.30;4.40;;;;;;;-1.71;91.54;98231.16;1687959;83;38715;-78
2022/01/30 03:28:20;;;;;;;8.10;3.90;;;;;;;-1.70;92.10;98223.55;1699299;83;21026;-79
2022/01/30 03:30:52;;;;;;;6.10;4.70;;;;;;;-1.71;92.53;98209.56;1712552;83;22126;-79
2022/01/30 03:33:21;;;;;;;4.35;3.75;;;;;;;-1.70;92.58;98199.84;1703958;84;21019;-77
2022/01/30 03:35:47;;;;;;;7.33;5.87;;;;;;;-1.72;93.03;98201.36;1687144;83;21033;-76
2022/01/30 03:38:19;;;;;;;5.93;4.50;;;;;;;-1.73;93.38;98192.36;1722468;83;21193;-78
2022/01/30 03:40:45;;;;;;;5.40;3.77;;;;;;;-1.69;93.58;98191.73;1703222;83;21090;-76
2022/01/30 03:43:12;;;;;;;5.43;3.67;;;;;;;-1.66;93.75;98171.54;1671447;83;21170;-76
2022/01/30 03:45:38;;;;;;;5.77;4.90;;;;;;;-1.66;93.87;98170.73;1722582;83;21002;-77
2022/01/30 03:48:05;;;;;;;5.90;4.00;;;;;;;-1.69;94.11;98156.66;1724695;83;21576;-77
2022/01/30 03:50:50;;;;;;;4.87;3.93;;;;;;;-1.69;94.45;98142.98;1724709;83;21061;-76
2022/01/30 03:53:16;;;;;;;6.17;3.63;;;;;;;-1.66;94.95;98168.91;1705978;83;20995;-77
2022/01/30 03:55:43;;;;;;;6.57;3.47;;;;;;;-1.63;95.33;98134.22;1702182;84;21629;-76
2022/01/30 03:58:11;;;;;;;7.70;3.97;;;;;;;-1.57;95.60;98131.25;1701795;83;21020;-76
2022/01/30 04:00:39;;;;;;;5.17;4.43;;;;;;;-1.54;95.91;98133.48;1690480;83;21013;-76
2022/01/30 04:03:05;;;;;;;3.20;2.97;;;;;;;-1.50;96.22;98145.22;1723338;83;21053;-75
2022/01/30 04:05:32;;;;;;;5.17;3.03;;;;;;;-1.49;96.57;98092.81;1674323;83;21035;-76
2022/01/30 04:08:02;;;;;;;3.63;2.67;;;;;;;-1.48;97.05;98109.71;1674223;84;21743;-77
2022/01/30 04:10:40;;;;;;;3.30;3.00;;;;;;;-1.48;97.52;98093.89;1697728;84;21508;-76
2022/01/30 04:13:14;;;;;;;4.93;3.60;;;;;;;-1.49;98.65;98142.89;1660221;84;21551;-77
2022/01/30 04:15:55;;;;;;;7.97;4.53;;;;;;;-1.47;99.85;98080.20;1692646;83;21057;-77
2022/01/30 04:18:23;;;;;;;4.33;3.60;;;;;;;-1.45;100.00;98075.03;1693616;83;21098;-77
2022/01/30 04:20:58;;;;;;;6.40;3.23;;;;;;;-1.46;100.00;98073.92;1657317;83;21089;-77
2022/01/30 04:23:26;;;;;;;3.40;3.10;;;;;;;-1.45;100.00;98060.53;1690231;83;21024;-78
2022/01/30 04:26:01;;;;;;;3.03;2.73;;;;;;;-1.41;100.00;98065.67;1720769;83;20969;-77
2022/01/30 04:28:35;;;;;;;4.13;3.33;;;;;;;-1.42;100.00;98064.05;1686812;83;21502;-77
2022/01/30 04:31:20;;;;;;;6.23;3.93;;;;;;;-1.39;100.00;98042.52;1652022;84;21076;-76
2022/01/30 04:33:52;;;;;;;5.77;3.53;;;;;;;-1.39;100.00;98049.66;1673557;84;21762;-77
2022/01/30 04:36:29;;;;;;;3.23;2.90;;;;;;;-1.40;100.00;98034.85;1685418;83;21025;-75
2022/01/30 04:42:06;;;;;;;6.97;3.97;;;;;;;-1.35;100.00;98009.46;1610456;88;21019;-77
2022/01/30 04:53:22;;;;;;;5.93;4.07;;;;;;;-1.29;100.00;97984.04;1626936;83;21067;-80
2022/01/30 04:58:35;;;;;;;4.03;3.63;;;;;;;-1.28;100.00;98012.03;1695905;83;21020;-78
2022/01/30 05:01:17;;;;;;;4.90;3.00;;;;;;;-1.28;100.00;97970.34;1698061;83;21886;-77
2022/01/30 05:04:00;;;;;;;6.63;4.43;;;;;;;-1.26;100.00;97956.45;1717910;82;20960;-79
2022/01/30 05:06:32;;;;;;;4.27;3.83;;;;;;;-1.30;99.71;97962.67;1698958;83;21021;-79
2022/01/30 05:09:08;;;;;;;3.37;3.07;;;;;;;-1.32;99.37;97961.56;1702729;83;21515;-77
2022/01/30 05:11:38;;;;;;;5.40;3.50;;;;;;;-1.28;99.44;97950.06;1702443;83;21048;-76
2022/01/30 05:14:10;;;;;;;4.27;3.00;;;;;;;-1.25;99.57;97939.09;1707272;83;21177;-77
2022/01/30 05:16:39;;;;;;;6.50;3.10;;;;;;;-1.25;99.04;97946.20;1726995;83;21527;-79
2022/01/30 05:19:08;;;;;;;5.43;4.10;;;;;;;-1.28;98.47;97955.84;1704925;83;21569;-77
2022/01/30 05:21:37;;;;;;;5.67;4.13;;;;;;;-1.35;98.74;97926.92;1686982;82;20980;-78
2022/01/30 05:24:22;;;;;;;7.53;3.53;;;;;;;-1.38;98.97;97920.23;1658563;83;21064;-77
2022/01/30 05:26:51;;;;;;;6.93;3.33;;;;;;;-1.40;99.09;97934.67;1741024;82;21147;-80
2022/01/30 05:29:36;;;;;;;4.00;3.20;;;;;;;-1.44;99.03;97911.09;1743179;82;20922;-77
2022/01/30 05:32:09;;;;;;;5.03;4.13;;;;;;;-1.46;99.37;97892.03;1717299;82;21053;-76
2022/01/30 05:34:55;;;;;;;7.87;3.73;;;;;;;-1.47;99.65;97889.91;1723071;81;21331;-82
2022/01/30 05:37:24;;;;;;;5.73;3.63;;;;;;;-1.48;99.46;97898.83;1680535;83;21063;-81
2022/01/30 05:40:13;;;;;;;5.97;3.77;;;;;;;-1.47;99.61;97918.91;1691170;82;21023;-81
2022/01/30 05:42:45;;;;;;;4.83;4.33;;;;;;;-1.51;99.47;97872.11;1732158;81;21654;-80
2022/01/30 05:45:21;;;;;;;5.70;3.57;;;;;;;-1.51;99.47;97872.11;1699152;82;21712;-81
2022/01/30 05:48:06;;;;;;;8.83;4.03;;;;;;;-1.50;99.62;97906.16;1713225;82;21592;-81
2022/01/30 05:50:38;;;;;;;7.42;4.33;;;;;;;-1.53;99.47;97872.31;1718167;82;21108;-81
2022/01/30 05:53:06;;;;;;;6.23;5.03;;;;;;;-1.56;99.66;97860.09;1738829;81;21791;-80
2022/01/30 05:55:35;;;;;;;5.07;3.80;;;;;;;-1.54;99.99;97864.65;1700244;83;21031;-82
2022/01/30 05:58:02;;;;;;;5.53;4.50;;;;;;;-1.56;99.86;97849.05;1721231;83;20975;-76
2022/01/30 06:00:31;;;;;;;8.03;5.20;;;;;;;-1.55;99.91;97864.34;1720884;82;20960;-74
2022/01/30 06:02:57;;;;;;;7.63;4.63;;;;;;;-1.53;100.00;97876.27;1722838;82;21075;-76
2022/01/30 06:05:25;;;;;;;8.13;4.50;;;;;;;-1.54;99.77;97865.45;1697073;83;21770;-77
2022/01/30 06:07:54;;;;;;;6.23;4.53;;;;;;;-1.53;99.76;97849.91;1722567;82;21590;-77
2022/01/30 06:10:26;;;;;;;7.07;6.37;;;;;;;-1.51;99.77;97846.56;1722631;82;20932;-77
2022/01/30 06:12:52;;;;;;;9.27;4.73;;;;;;;-1.53;99.62;97851.73;1722497;82;21513;-77
2022/01/30 06:15:19;;;;;;;8.03;5.07;;;;;;;-1.54;99.68;97841.73;1723998;82;21024;-75
2022/01/30 06:17:47;;;;;;;6.03;4.30;;;;;;;-1.53;99.74;97845.95;1722846;83;21011;-77
2022/01/30 06:20:27;;;;;;;5.50;4.27;;;;;;;-1.51;99.88;97836.53;1661997;82;21145;-76
2022/01/30 06:23:07;;;;;;;7.07;5.53;;;;;;;-1.50;99.91;97839.47;1718930;83;20996;-77
2022/01/30 06:25:54;;;;;;;4.67;4.03;;;;;;;-1.52;99.83;97827.81;1722620;83;20985;-76
2022/01/30 06:28:40;;;;;;;5.77;5.17;;;;;;;-1.48;100.00;97812.36;1722747;83;21002;-76
2022/01/30 06:31:23;;;;;;;;;;;;;;;-1.51;99.80;97814.13;1680102;84;22376;-75
2022/01/30 06:34:10;;;;;;;6.10;4.90;;;;;;;-1.51;99.76;97812.81;1713444;82;20147;-74
2022/01/30 06:36:56;;;;;;;6.33;5.70;;;;;;;-1.49;99.87;97816.85;1743413;82;21523;-77
2022/01/30 06:39:41;;;;;;;7.57;6.20;;;;;;;-1.45;99.84;97798.25;1744060;82;21060;-77
2022/01/30 06:42:12;;;;;;;11.90;6.47;;;;;;;-1.40;99.65;97803.67;1714381;83;21054;-74
2022/01/30 06:44:56;;;;;;;8.57;5.10;;;;;;;-1.36;99.35;97786.39;1680712;84;21061;-75
2022/01/30 06:47:43;;;;;;;7.27;5.10;;;;;;;-1.29;99.07;97782.33;1684879;83;20999;-78
2022/01/30 06:50:12;;;;;;;6.10;5.50;;;;;;;-1.26;98.67;97792.45;1680084;84;21039;-74
2022/01/30 06:52:47;;;;;;;6.10;5.23;;;;;;;-1.22;98.35;97773.03;1716507;83;21024;-79
2022/01/30 06:55:25;;;;;;;9.00;6.17;;;;;;;-1.21;97.83;97753.55;1726957;83;21028;-78
2022/01/30 06:57:54;;;;;;;10.37;6.87;;;;;;;-1.19;97.52;97766.80;1675103;83;21061;-81
2022/01/30 07:00:39;;;;;;;8.47;5.97;;;;;;;-1.22;97.22;97787.54;1716198;83;21039;-83
2022/01/30 07:03:23;;;;;;;7.53;6.40;;;;;;;-1.20;97.26;97766.50;1704886;83;21011;-82
2022/01/30 07:05:51;;;;;;;6.90;6.30;;;;;;;-1.17;97.14;97748.94;1680995;84;21041;-81
2022/01/30 07:08:20;;;;;;;9.17;7.60;;;;;;;-1.16;97.14;97748.42;1705658;84;21027;-82
2022/01/30 07:10:46;;;;;;;7.07;6.27;;;;;;;-1.17;97.30;97748.94;1746422;82;21044;-81
2022/01/30 07:13:13;;;;;;;8.00;6.63;;;;;;;-1.13;97.52;97754.05;1722836;82;21012;-78
2022/01/30 07:15:41;;;;;;;10.00;6.47;;;;;;;-1.11;97.45;97735.38;1748824;82;21016;-76
2022/01/30 07:18:08;;;;;;;9.47;7.50;;;;;;;-1.14;97.33;97726.58;1714876;83;21531;-74
2022/01/30 07:20:36;;;;;;;11.03;6.97;;;;;;;-1.13;97.75;97709.22;1729970;82;21017;-74
2022/01/30 07:23:03;;;;;;;7.87;6.33;;;;;;;-1.11;97.98;97742.78;1741854;82;21108;-76
2022/01/30 07:25:29;;;;;;;7.80;6.77;;;;;;;-1.09;98.16;97730.16;1746743;82;21029;-77
2022/01/30 07:27:55;;;;;;;6.77;5.40;;;;;;;-1.03;98.26;97725.83;1729559;83;21052;-75
2022/01/30 07:30:22;;;;;;;7.03;6.07;;;;;;;-1.00;98.26;97708.22;1748705;82;21041;-79
2022/01/30 07:32:49;;;;;;;9.23;5.87;;;;;;;-0.93;98.37;97728.22;1748674;82;20981;-76
2022/01/30 07:35:17;;;;;;;8.97;6.77;;;;;;;-0.89;98.30;97704.82;1694617;82;21024;-77
2022/01/30 07:37:43;;;;;;;6.70;5.20;;;;;;;-0.83;98.27;97714.48;1714021;82;20940;-81
2022/01/30 07:40:12;;;;;;;9.90;5.97;;;;;;;-0.80;97.99;97709.25;1731282;82;21581;-82
2022/01/30 07:42:40;;;;;;;7.93;5.77;;;;;;;-0.76;97.86;97708.58;1728410;82;21071;-80
2022/01/30 07:45:06;;;;;;;8.10;5.93;;;;;;;-0.73;97.71;97703.38;1672723;84;21047;-80
2022/01/30 07:47:34;;;;;;;7.70;5.57;;;;;;;-0.67;97.61;97696.66;1698746;83;21235;-76
2022/01/30 07:50:00;;;;;;;8.53;6.43;;;;;;;-0.62;97.50;97698.61;1745618;82;21041;-75
2022/01/30 07:52:26;;;;;;;7.13;5.53;;;;;;;-0.56;97.40;97685.33;1746717;82;21056;-74
2022/01/30 07:54:53;;;;;;;11.67;6.80;;;;;;;-0.53;97.03;97694.09;1731211;83;21052;-76
2022/01/30 07:57:19;;;;;;;8.27;5.57;;;;;;;-0.48;96.93;97700.81;1729721;83;20993;-75
2022/01/30 07:59:46;;;;;;;7.57;5.60;;;;;;;-0.42;96.79;97687.23;1701756;83;21518;-75
2022/01/30 08:02:12;;;;;;;7.00;5.80;;;;;;;-0.39;96.41;97693.91;1707337;83;21511;-74
2022/01/30 08:04:39;;;;;;;8.23;6.23;;;;;;;-0.37;96.22;97676.78;1712354;83;21561;-76
2022/01/30 08:07:07;;;;;;;9.57;5.73;;;;;;;-0.32;96.19;97694.06;1700536;83;21097;-78
2022/01/30 08:09:33;;;;;;;8.03;5.60;;;;;;;-0.26;96.14;97679.95;1713274;83;21137;-78
2022/01/30 08:12:02;;;;;;;7.73;5.33;;;;;;;-0.20;96.03;97674.27;1734690;82;21047;-78
2022/01/30 08:14:29;;;;;;;7.77;5.77;;;;;;;-0.14;95.91;97667.53;1724096;82;20920;-75
2022/01/30 08:16:56;;;;;;;10.77;5.83;;;;;;;-0.07;95.75;97671.38;1712733;82;20927;-77
2022/01/30 08:19:24;;;;;;;9.33;6.90;;;;;;;0.01;95.61;97656.48;1707579;84;21051;-80
2022/01/30 08:21:51;;;;;;;11.87;6.23;;;;;;;0.03;95.20;97665.00;1707410;84;21041;-78
2022/01/30 08:24:19;;;;;;;8.43;6.23;;;;;;;0.07;95.05;97658.21;1723251;82;21144;-78
2022/01/30 08:26:46;;;;;;;9.03;6.23;;;;;;;0.13;94.99;97667.05;1743268;81;21084;-78
2022/01/30 08:29:12;;;;;;;12.20;9.77;;;;;;;0.18;94.87;97661.87;1718157;82;21541;-78
2022/01/30 08:31:39;;;;;;;9.27;7.13;;;;;;;0.22;94.82;97658.53;1743432;82;21069;-76
2022/01/30 08:34:07;;;;;;;9.27;6.03;;;;;;;0.28;94.57;97658.12;1740899;82;21070;-81
2022/01/30 08:36:35;;;;;;;11.03;7.33;;;;;;;0.32;94.46;97651.33;1702987;83;22011;-83
2022/01/30 08:39:05;;;;;;;12.30;7.40;;;;;;;0.35;94.42;97645.04;1722974;82;21480;-83
2022/01/30 08:41:34;;;;;;;9.08;5.87;;;;;;;0.39;94.57;97655.42;1736499;82;20953;-83
2022/01/30 08:44:01;;;;;;;11.83;7.53;;;;;;;0.44;94.80;97658.17;1749116;82;21334;-83
2022/01/30 08:46:31;;;;;;;10.73;6.63;;;;;;;0.54;94.96;97638.25;1730075;82;20983;-84
2022/01/30 08:49:03;;;;;;;12.37;7.97;;;;;;;0.64;95.08;97631.83;1744267;82;21500;-78
2022/01/30 08:51:30;;;;;;;11.33;7.55;;;;;;;0.71;95.07;97645.21;1686908;83;20971;-81
2022/01/30 08:53:58;;;;;;;11.67;6.80;;;;;;;0.83;95.19;97631.39;1706677;82;21082;-79
2022/01/30 08:56:24;;;;;;;11.67;7.17;;;;;;;0.95;95.25;97623.92;1750877;81;21044;-80
2022/01/30 08:58:53;;;;;;;10.57;7.50;;;;;;;1.04;95.16;97608.73;1753172;81;21097;-78
2022/01/30 09:01:19;;;;;;;11.13;6.83;;;;;;;1.14;95.08;97609.42;1726063;82;22021;-79
2022/01/30 09:03:46;;;;;;;9.23;5.67;;;;;;;1.23;95.05;97613.27;1748012;82;21028;-82
2022/01/30 09:06:13;;;;;;;7.07;5.73;;;;;;;1.30;94.96;97604.11;1749335;82;20965;-80
2022/01/30 09:08:43;;;;;;;9.83;6.07;;;;;;;1.39;94.76;97608.47;1724350;82;21021;-84
2022/01/30 09:11:11;;;;;;;8.30;5.20;;;;;;;1.47;94.74;97590.88;1747144;82;21126;-86
2022/01/30 09:13:50;;;;;;;8.33;4.80;;;;;;;1.56;94.72;97600.00;1676721;82;20962;-86
2022/01/30 09:16:18;;;;;;;10.43;6.63;;;;;;;1.63;94.62;97590.02;1700326;83;21063;-82
2022/01/30 09:18:45;;;;;;;6.90;4.60;;;;;;;1.70;94.37;97594.64;1723260;81;21548;-82
2022/01/30 09:21:13;;;;;;;6.90;5.00;;;;;;;1.77;94.28;97597.64;1673053;84;21054;-83
2022/01/30 09:23:41;;;;;;;4.53;4.13;;;;;;;1.85;94.10;97589.27;1736262;81;21007;-81
2022/01/30 09:28:59;;;;;;;7.37;4.63;;;;;;;2.00;93.81;97592.11;1677368;84;21043;-83
2022/01/30 09:31:34;;;;;;;8.83;5.67;;;;;;;2.07;93.87;97587.41;1677533;84;20965;-85
2022/01/30 09:34:06;;;;;;;6.83;5.60;;;;;;;2.14;93.85;97574.78;1648776;86;20981;-86
2022/01/30 09:37:06;;;;;;;7.10;4.97;;;;;;;2.16;93.45;97593.88;1689416;83;20923;-85
2022/01/30 09:39:50;;;;;;;5.60;4.67;;;;;;;2.18;93.62;97591.27;1704405;83;22047;-81
2022/01/30 09:42:27;;;;;;;7.97;4.57;;;;;;;2.22;93.93;97585.47;1719540;83;20916;-82
2022/01/30 09:44:58;;;;;;;8.63;5.27;;;;;;;2.26;94.16;97594.00;1671854;83;20979;-86
2022/01/30 09:47:25;;;;;;;8.75;6.62;;;;;;;2.31;94.20;97602.54;1720546;83;21098;-82
2022/01/30 09:49:55;;;;;;;6.77;4.90;;;;;;;2.33;94.72;97581.37;1706510;83;21015;-84
2022/01/30 09:52:24;;;;;;;7.70;5.47;;;;;;;2.36;94.93;97582.19;1717699;83;21526;-88
2022/01/30 09:54:54;;;;;;;5.47;4.97;;;;;;;2.40;94.60;97598.42;1691963;83;21038;-83
2022/01/30 09:57:28;;;;;;;5.57;4.67;;;;;;;2.43;94.66;97596.07;1686121;83;21015;-85
2022/01/30 09:59:56;;;;;;;;;;;;;;;2.44;94.70;97599.53;1718551;83;21555;-85
2022/01/30 10:02:26;;;;;;;7.07;4.63;;;;;;;2.48;94.82;97576.75;1692573;83;20528;-82
2022/01/30 10:04:56;;;;;;;6.80;4.90;;;;;;;2.50;94.81;97575.96;1661489;85;21102;-87
2022/01/30 10:07:43;;;;;;;4.80;4.13;;;;;;;2.58;94.87;97583.49;1646990;85;21087;-88
2022/01/30 10:10:26;;;;;;;7.53;4.10;;;;;;;2.62;94.46;97585.92;1644682;85;21059;-87
2022/01/30 10:13:11;;;;;;;6.42;5.53;;;;;;;2.68;94.48;97578.29;1674213;85;21731;-87
2022/01/30 10:16:02;;;;;;;7.28;5.05;;;;;;;2.76;94.37;97588.97;1674074;85;20986;-87
2022/01/30 10:18:32;;;;;;;5.78;4.47;;;;;;;2.83;94.46;97568.34;1674238;85;21108;-86
2022/01/30 10:21:01;;;;;;;9.03;4.42;;;;;;;2.91;94.16;97567.35;1675642;84;21146;-85
2022/01/30 10:23:37;;;;;;;6.27;3.97;;;;;;;2.95;93.84;97567.12;1646773;85;20974;-87
2022/01/30 10:26:12;;;;;;;5.80;4.55;;;;;;;2.99;93.63;97589.45;1676316;84;21464;-87
2022/01/30 10:28:42;;;;;;;10.70;4.85;;;;;;;3.01;93.54;97576.73;1641394;85;21047;-87
2022/01/30 10:31:09;;;;;;;6.33;4.80;;;;;;;3.04;93.46;97571.42;1594992;88;21102;-88
2022/01/30 10:33:51;;;;;;;8.08;4.28;;;;;;;3.08;93.42;97581.29;1617910;88;21034;-84
2022/01/30 10:36:32;;;;;;;5.20;4.47;;;;;;;3.12;92.69;97577.59;1632421;86;21522;-83
2022/01/30 10:39:13;;;;;;;9.33;5.45;;;;;;;3.17;92.88;97561.70;1649182;86;21569;-90
2022/01/30 10:41:53;;;;;;;7.55;5.40;;;;;;;3.21;92.77;97584.06;1641936;87;21017;-86
2022/01/30 10:44:22;;;;;;;6.45;3.72;;;;;;;3.23;92.40;97562.55;1642197;87;22154;-84
2022/01/30 10:46:52;;;;;;;6.58;4.42;;;;;;;3.25;92.13;97573.20;1647974;86;21010;-89
2022/01/30 10:49:21;;;;;;;8.45;4.83;;;;;;;3.30;92.01;97567.13;1710850;83;21117;-85
2022/01/30 10:52:16;;;;;;;6.55;3.67;;;;;;;3.34;91.74;97556.26;1636524;86;21050;-87
2022/01/30 10:54:45;;;;;;;;;;;;;;;3.40;91.43;97557.38;1698721;83;21082;-84
2022/01/30 10:57:14;;;;;;;6.03;4.33;;;;;;;3.45;90.99;97563.25;1675847;84;21080;-85
2022/01/30 10:59:52;;;;;;;9.60;5.08;;;;;;;3.48;90.84;97546.78;1688826;83;21215;-85
2022/01/30 11:02:19;;;;;;;12.63;4.10;;;;;;;3.50;90.66;97538.04;1645414;87;21555;-82
2022/01/30 11:04:48;;;;;;;5.78;3.60;;;;;;;3.52;90.08;97541.22;1686326;85;21082;-83
2022/01/30 11:07:20;;;;;;;9.13;4.28;;;;;;;3.57;90.03;97543.91;1685724;83;21068;-83
2022/01/30 11:10:05;;;;;;;8.10;4.22;;;;;;;3.62;89.96;97533.83;1696074;83;21129;-84
2022/01/30 11:12:56;;;;;;;;;;;;;;;;;;;;;
2022/01/30 11:15:21;;;;;;;6.35;3.85;;;;;;;3.69;89.41;97533.89;1722985;83;21052;-88
2022/01/30 11:17:45;;;;;;;7.10;4.25;;;;;;;3.71;89.15;97533.61;1697296;82;21028;-78
2022/01/30 11:20:12;;;;;;;7.50;5.87;;;;;;;3.72;88.96;97537.34;1685662;83;20946;-84
2022/01/30 11:22:44;;;;;;;10.35;6.58;;;;;;;3.75;88.72;97534.69;1650014;86;21163;-84
2022/01/30 11:25:12;;;;;;;6.67;4.25;;;;;;;3.80;88.70;97530.73;1690287;83;20970;-82
2022/01/30 11:27:42;;;;;;;6.83;4.33;;;;;;;3.85;88.62;97532.88;1670765;84;21072;-79
2022/01/30 11:30:11;;;;;;;5.90;4.40;;;;;;;3.90;88.28;97536.89;1672500;84;21092;-80
2022/01/30 11:32:38;;;;;;;9.50;5.47;;;;;;;3.92;87.75;97533.45;1649369;85;21048;-81
2022/01/30 11:35:07;;;;;;;9.68;6.30;;;;;;;3.94;87.31;97530.52;1650938;86;21010;-82
2022/01/30 11:37:36;;;;;;;10.05;5.62;;;;;;;3.99;87.31;97533.73;1624219;87;21060;-83
2022/01/30 11:40:14;;;;;;;7.65;4.85;;;;;;;4.03;87.11;97536.94;1659429;84;21035;-88
2022/01/30 11:42:47;;;;;;;7.33;4.60;;;;;;;4.06;86.38;97531.12;1647856;87;21521;-87
2022/01/30 11:45:27;;;;;;;6.85;4.90;;;;;;;4.12;86.27;97526.62;1657159;85;20995;-81
2022/01/30 11:48:03;;;;;;;7.75;4.67;;;;;;;4.16;85.96;97531.68;1644787;87;21329;-84
2022/01/30 11:50:33;;;;;;;8.13;4.10;;;;;;;4.16;85.44;97526.36;1667027;84;20986;-81
2022/01/30 11:53:03;;;;;;;10.28;5.00;;;;;;;4.16;85.11;97518.38;1676461;84;21053;-80
2022/01/30 11:55:55;;;;;;;10.68;4.20;;;;;;;4.17;85.08;97519.98;1721735;83;21221;-82
2022/01/30 11:58:49;;;;;;;4.92;3.77;;;;;;;4.19;84.93;97522.64;1684055;84;21605;-82
2022/01/30 12:01:37;;;;;;;9.75;4.25;;;;;;;4.23;84.49;97525.04;1670392;84;21580;-84
2022/01/30 12:04:10;;;;;;;8.08;4.03;;;;;;;4.27;83.71;97504.02;1654405;84;21051;-86
2022/01/30 12:06:43;;;;;;;7.50;4.22;;;;;;;4.33;82.46;97532.25;1660765;85;21035;-82
2022/01/30 12:09:26;;;;;;;7.70;4.70;;;;;;;4.36;81.96;97495.83;1697777;83;21086;-82
2022/01/30 12:11:57;;;;;;;6.42;3.33;;;;;;;4.39;81.52;97504.59;1692465;84;21128;-85
2022/01/30 12:14:44;;;;;;;7.50;3.35;;;;;;;4.40;80.25;97512.85;1663681;85;21147;-85
2022/01/30 12:17:14;;;;;;;5.65;3.12;;;;;;;4.44;79.83;97517.11;1668499;84;21027;-82
2022/01/30 12:19:50;;;;;;;7.45;3.75;;;;;;;4.45;78.87;97522.70;1712903;83;21018;-85
2022/01/30 12:22:41;;;;;;;8.30;4.33;;;;;;;4.47;78.30;97513.91;1712832;83;21149;-84
2022/01/30 12:25:36;;;;;;;5.62;3.42;;;;;;;4.46;78.59;97517.10;1664766;84;21072;-84
2022/01/30 12:28:10;;;;;;;9.10;3.47;;;;;;;4.48;78.06;97526.16;1686300;82;21170;-80
2022/01/30 12:30:42;;;;;;;7.03;3.33;;;;;;;4.47;77.81;97521.89;1711774;83;21046;-77